Time;durP1;ratioP1;P1;durP2;ratioP2;P2;SDS_P1;SDS_P2;PMS_P1;PMS_P2;Temp;Humidity;BMP_temperature;BMP_pressure;BME280_temperature;BME280_humidity;BME280_pressure;Samples;Min_cycle;Max_cycle;Signal;HPM_P1;HPM_P2
2022/01/08 00:01:56;;;;;;;7.45;1.90;;;;;;;4.83;63.29;101115.09;4959313;28;20078;-59
2022/01/08 00:04:21;;;;;;;9.45;2.10;;;;;;;4.79;63.38;101121.84;4961155;28;20035;-59
2022/01/08 00:06:47;;;;;;;15.00;2.13;;;;;;;4.82;63.32;101118.50;4959845;28;20074;-60
2022/01/08 00:09:12;;;;;;;6.57;1.70;;;;;;;4.79;63.91;101116.69;4958969;28;20042;-59
2022/01/08 00:11:41;;;;;;;7.53;2.10;;;;;;;4.81;63.37;101125.41;4951785;28;20038;-60
2022/01/08 00:14:07;;;;;;;12.90;1.90;;;;;;;4.78;63.60;101119.22;4950161;28;20834;-61
2022/01/08 00:16:34;;;;;;;7.82;1.70;;;;;;;4.77;63.41;101126.06;4959059;28;20737;-60
2022/01/08 00:18:59;;;;;;;5.93;1.80;;;;;;;4.72;63.48;101129.28;4954319;28;20289;-59
2022/01/08 00:21:24;;;;;;;8.80;1.90;;;;;;;4.70;64.06;101130.91;4951193;28;20125;-59
2022/01/08 00:23:50;;;;;;;4.93;1.77;;;;;;;4.77;63.84;101135.50;4957422;28;20050;-60
2022/01/08 00:26:18;;;;;;;9.82;1.80;;;;;;;4.69;64.44;101137.81;4952437;28;20398;-60
2022/01/08 00:28:43;;;;;;;7.60;1.80;;;;;;;4.65;63.99;101141.06;4954474;28;20050;-60
2022/01/08 00:31:10;;;;;;;7.05;1.80;;;;;;;4.67;64.14;101144.59;4958913;28;20485;-59
2022/01/08 00:33:39;;;;;;;4.50;1.42;;;;;;;4.70;64.68;101143.81;4946432;28;20256;-59
2022/01/08 00:36:05;;;;;;;5.97;1.40;;;;;;;4.71;64.22;101146.47;4964943;28;20118;-59
2022/01/08 00:38:31;;;;;;;6.53;1.80;;;;;;;4.71;64.14;101138.72;4952702;28;20352;-58
2022/01/08 00:40:56;;;;;;;8.18;1.83;;;;;;;4.72;64.18;101135.34;4955525;28;20046;-59
2022/01/08 00:43:22;;;;;;;9.60;2.25;;;;;;;4.69;64.13;101135.22;4951836;28;20595;-60
2022/01/08 00:45:47;;;;;;;9.27;2.00;;;;;;;4.65;64.74;101125.56;4958041;28;20045;-59
2022/01/08 00:48:13;;;;;;;6.90;1.95;;;;;;;4.63;64.74;101119.47;4952471;28;20046;-58
2022/01/08 00:50:38;;;;;;;8.32;1.73;;;;;;;4.65;64.73;101111.78;4958154;28;20050;-59
2022/01/08 00:53:04;;;;;;;10.18;1.70;;;;;;;4.66;64.08;101118.72;4957723;28;20046;-59
2022/01/08 00:55:29;;;;;;;9.02;2.00;;;;;;;4.62;64.15;101132.31;4952950;28;20113;-58
2022/01/08 00:57:55;;;;;;;6.32;1.42;;;;;;;4.59;64.25;101127.03;4958664;28;20089;-59
2022/01/08 01:00:20;;;;;;;4.82;1.60;;;;;;;4.57;64.76;101123.50;4954433;28;20043;-60
2022/01/08 01:02:45;;;;;;;5.43;1.50;;;;;;;4.55;64.47;101133.78;4957919;28;20050;-58
2022/01/08 01:05:11;;;;;;;11.30;1.80;;;;;;;4.49;64.37;101138.69;4960626;28;20501;-59
2022/01/08 01:07:37;;;;;;;4.60;1.55;;;;;;;4.47;64.88;101138.59;4955465;28;20060;-58
2022/01/08 01:10:04;;;;;;;7.85;1.80;;;;;;;4.48;65.22;101137.78;4952215;28;20045;-59
2022/01/08 01:12:30;;;;;;;7.13;1.58;;;;;;;4.46;65.58;101143.69;4960801;28;20045;-59
2022/01/08 01:14:55;;;;;;;6.43;1.92;;;;;;;4.46;65.29;101138.53;4956578;28;20046;-59
2022/01/08 01:17:20;;;;;;;8.57;1.60;;;;;;;4.47;65.68;101133.44;4949760;28;20113;-60
2022/01/08 01:19:48;;;;;;;5.90;1.50;;;;;;;4.49;65.24;101133.50;4959937;28;20399;-59
2022/01/08 01:22:16;;;;;;;8.30;1.40;;;;;;;4.51;65.20;101131.88;4954739;28;20061;-60
2022/01/08 01:24:42;;;;;;;5.97;1.65;;;;;;;4.48;65.88;101135.22;4955778;28;20042;-59
2022/01/08 01:27:46;;;;;;;6.75;1.55;;;;;;;4.47;65.92;101132.56;4958443;28;20039;-60
2022/01/08 01:30:10;;;;;;;6.00;1.70;;;;;;;4.49;65.14;101142.16;4955004;28;20555;-60
2022/01/08 01:47:00;;;;;;;6.20;1.88;;;;;;;4.35;66.19;101144.94;4948211;28;20049;-59
2022/01/08 01:49:07;;;;;;;8.70;1.83;;;;;;;4.35;67.30;101155.28;4959630;28;20570;-59
2022/01/08 01:51:33;;;;;;;6.60;1.92;;;;;;;4.45;67.07;101157.44;4951666;28;20525;-58
2022/01/08 01:53:58;;;;;;;6.30;1.90;;;;;;;4.49;67.24;101169.66;4954634;28;20046;-58
2022/01/08 01:56:24;;;;;;;7.22;1.80;;;;;;;4.56;66.74;101166.53;4958259;28;20429;-58
2022/01/08 01:58:50;;;;;;;10.10;1.90;;;;;;;4.62;67.04;101171.06;4962602;28;20552;-58
2022/01/08 02:01:16;;;;;;;6.15;1.80;;;;;;;4.74;66.85;101169.88;4951621;28;20073;-58
2022/01/08 02:03:42;;;;;;;7.53;2.03;;;;;;;4.93;66.21;101171.50;4952899;28;20219;-59
2022/01/08 02:06:08;;;;;;;4.45;1.52;;;;;;;4.98;66.18;101166.50;4958820;28;20544;-59
2022/01/08 02:08:34;;;;;;;5.53;1.60;;;;;;;5.04;66.09;101171.94;4954468;28;20412;-59
2022/01/08 02:11:00;;;;;;;9.55;2.00;;;;;;;5.10;66.16;101170.47;4947926;28;20574;-59
2022/01/08 02:13:27;;;;;;;8.43;2.08;;;;;;;5.19;66.07;101163.06;4935950;28;20437;-59
2022/01/08 02:15:54;;;;;;;9.15;1.65;;;;;;;5.27;66.29;101155.63;4955385;28;20050;-59
2022/01/08 02:18:21;;;;;;;9.63;1.88;;;;;;;5.32;65.58;101167.03;4949691;28;20679;-59
2022/01/08 02:20:47;;;;;;;9.57;1.95;;;;;;;5.32;65.12;101167.03;4956814;28;20038;-59
2022/01/08 02:23:12;;;;;;;6.70;1.83;;;;;;;5.38;65.63;101156.91;4963639;28;20046;-59
2022/01/08 02:25:37;;;;;;;8.75;1.88;;;;;;;5.37;65.28;101165.50;4947774;28;20478;-60
2022/01/08 02:28:04;;;;;;;11.25;2.25;;;;;;;5.41;65.21;101162.22;4950168;28;20042;-58
2022/01/08 02:30:30;;;;;;;7.97;1.80;;;;;;;5.39;64.73;101158.69;4952659;28;20050;-59
2022/01/08 02:32:55;;;;;;;8.20;2.08;;;;;;;5.31;64.93;101160.09;4955910;28;20258;-59
2022/01/08 02:35:22;;;;;;;8.48;1.85;;;;;;;5.29;64.66;101156.56;4947009;28;20108;-60
2022/01/08 02:37:50;;;;;;;9.32;2.65;;;;;;;5.24;64.76;101146.06;4956056;28;20042;-58
2022/01/08 02:40:18;;;;;;;8.80;2.00;;;;;;;5.23;64.92;101156.34;4956073;28;20050;-59
2022/01/08 02:42:53;;;;;;;10.75;2.10;;;;;;;5.19;64.60;101157.91;4956324;28;20454;-60
2022/01/08 02:45:20;;;;;;;9.45;1.70;;;;;;;5.12;64.86;101165.38;4950012;28;20502;-57
2022/01/08 02:47:46;;;;;;;9.18;1.73;;;;;;;5.04;65.17;101159.91;4956935;28;20046;-59
2022/01/08 02:50:11;;;;;;;8.20;1.73;;;;;;;5.01;64.68;101164.03;4957334;28;20074;-58
2022/01/08 02:52:47;;;;;;;6.18;1.75;;;;;;;4.90;65.29;101155.88;4955212;28;20076;-58
2022/01/08 02:55:20;;;;;;;6.82;1.73;;;;;;;4.84;65.00;101156.50;4962871;28;20691;-59
2022/01/08 02:57:46;;;;;;;7.03;1.80;;;;;;;4.87;65.64;101155.75;4974765;28;20053;-59
2022/01/08 03:00:14;;;;;;;7.85;1.85;;;;;;;4.84;65.45;101153.91;4957339;28;20152;-58
2022/01/08 03:02:44;;;;;;;10.05;2.00;;;;;;;4.78;65.89;101148.50;4959768;28;20046;-58
2022/01/08 03:05:13;;;;;;;9.77;1.80;;;;;;;4.80;66.03;101153.75;4955365;28;20065;-59
2022/01/08 03:07:40;;;;;;;8.73;1.67;;;;;;;4.82;65.96;101140.03;4957472;28;20046;-58
2022/01/08 03:10:07;;;;;;;8.25;1.77;;;;;;;4.76;65.86;101152.72;4952703;28;20041;-59
2022/01/08 03:12:33;;;;;;;7.00;1.65;;;;;;;4.68;66.46;101143.78;4960428;28;20069;-58
2022/01/08 03:14:58;;;;;;;5.82;1.67;;;;;;;4.73;66.32;101143.97;4962580;28;20805;-58
2022/01/08 03:17:24;;;;;;;5.68;1.40;;;;;;;4.69;66.27;101148.16;4952347;28;20042;-59
2022/01/08 03:19:52;;;;;;;13.80;1.85;;;;;;;4.77;65.98;101143.25;4959841;28;20502;-59
2022/01/08 03:22:18;;;;;;;8.88;2.15;;;;;;;4.79;66.32;101152.84;4964013;28;20080;-58
2022/01/08 03:24:43;;;;;;;10.00;1.80;;;;;;;4.82;66.59;101149.50;4959074;28;20467;-59
2022/01/08 03:27:09;;;;;;;11.25;1.75;;;;;;;4.83;67.17;101152.16;4965705;28;20061;-58
2022/01/08 03:29:34;;;;;;;7.35;1.70;;;;;;;4.91;67.27;101144.72;4947988;28;20277;-57
2022/01/08 03:32:00;;;;;;;6.78;1.80;;;;;;;4.93;66.49;101150.84;4961237;28;20493;-59
2022/01/08 03:34:26;;;;;;;7.20;1.70;;;;;;;4.88;66.49;101153.22;4955775;28;20524;-58
2022/01/08 03:36:51;;;;;;;6.05;1.60;;;;;;;4.87;66.41;101146.31;4957910;28;20489;-59
2022/01/08 03:39:18;;;;;;;7.97;1.73;;;;;;;4.81;65.60;101135.72;4958786;28;20620;-57
2022/01/08 03:41:45;;;;;;;9.68;1.80;;;;;;;4.74;66.29;101138.00;4956837;28;20038;-58
2022/01/08 03:44:11;;;;;;;3.83;1.52;;;;;;;4.71;65.50;101149.06;4960782;28;20570;-60
2022/01/08 03:46:36;;;;;;;6.65;1.90;;;;;;;4.71;65.82;101143.00;4964277;28;20054;-60
2022/01/08 03:51:29;;;;;;;7.32;1.90;;;;;;;4.76;65.88;101144.97;4948050;28;20055;-59
2022/01/08 03:53:54;;;;;;;8.38;1.95;;;;;;;4.72;65.93;101145.66;4960481;28;20043;-58
2022/01/08 03:56:20;;;;;;;5.97;1.90;;;;;;;4.69;65.54;101147.25;4960313;28;20151;-59
2022/01/08 03:58:45;;;;;;;6.53;2.00;;;;;;;4.65;65.85;101148.81;4960256;28;20042;-58
2022/01/08 04:01:10;;;;;;;7.72;2.00;;;;;;;4.63;66.58;101145.31;4962387;28;20050;-59
2022/01/08 04:03:36;;;;;;;7.38;1.88;;;;;;;4.66;66.26;101144.53;4951065;28;20566;-58
2022/01/08 04:06:01;;;;;;;9.90;2.00;;;;;;;4.64;67.06;101146.16;4961032;28;20751;-57
2022/01/08 04:08:27;;;;;;;6.38;2.10;;;;;;;4.57;67.23;101149.34;4951897;28;20050;-59
2022/01/08 04:10:52;;;;;;;9.23;2.20;;;;;;;4.48;67.41;101142.97;4956806;28;20057;-59
2022/01/08 04:13:23;;;;;;;7.88;2.15;;;;;;;4.51;67.81;101146.50;4957075;28;20201;-58
2022/01/08 04:15:51;;;;;;;11.10;2.25;;;;;;;4.48;67.12;101148.13;4958227;28;20076;-59
2022/01/08 04:18:17;;;;;;;7.68;2.38;;;;;;;4.44;67.43;101159.16;4956604;28;20041;-59
2022/01/08 04:23:23;;;;;;;5.97;2.10;;;;;;;4.32;67.66;101155.16;4950530;28;20386;-58
2022/01/08 04:25:50;;;;;;;8.02;2.58;;;;;;;4.28;67.87;101161.88;4944391;28;20512;-59
2022/01/08 04:28:15;;;;;;;7.20;2.40;;;;;;;4.26;68.72;101160.94;4958999;28;20049;-58
2022/01/08 04:30:41;;;;;;;10.50;2.33;;;;;;;4.23;68.04;101167.66;4953341;28;20050;-58
2022/01/08 04:33:06;;;;;;;8.80;2.30;;;;;;;4.17;68.39;101168.28;4955424;28;20050;-58
2022/01/08 04:35:32;;;;;;;13.15;2.28;;;;;;;4.17;68.57;101172.53;4951151;28;20057;-59
2022/01/08 04:37:57;;;;;;;8.38;2.42;;;;;;;4.19;69.08;101170.91;4959302;28;20200;-58
2022/01/08 04:40:22;;;;;;;11.45;2.72;;;;;;;4.23;68.69;101175.38;4957842;28;20047;-59
2022/01/08 04:42:48;;;;;;;6.72;2.00;;;;;;;4.20;68.65;101183.91;4958960;28;20336;-58
2022/01/08 04:45:13;;;;;;;9.35;2.30;;;;;;;4.21;68.70;101177.03;4958640;28;20078;-59
2022/01/08 04:47:41;;;;;;;14.85;2.30;;;;;;;4.23;69.01;101186.59;4952262;28;21443;-57
2022/01/08 04:50:07;;;;;;;7.18;2.13;;;;;;;4.26;68.65;101188.44;4954181;28;20092;-60
2022/01/08 04:52:32;;;;;;;7.38;2.17;;;;;;;4.24;68.71;101184.91;4956683;28;20055;-58
2022/01/08 04:54:57;;;;;;;7.75;2.10;;;;;;;4.32;68.71;101178.38;4959296;28;20041;-58
2022/01/08 04:57:23;;;;;;;5.65;2.08;;;;;;;4.30;68.34;101180.00;4944135;28;20046;-61
2022/01/08 04:59:48;;;;;;;9.75;2.17;;;;;;;4.25;68.55;101181.50;4960394;28;20065;-61
2022/01/08 05:02:14;;;;;;;7.65;2.20;;;;;;;4.26;68.06;101171.25;4957276;28;20050;-60
2022/01/08 05:04:39;;;;;;;10.38;2.33;;;;;;;4.24;68.62;101177.16;4956653;28;20419;-58
2022/01/08 05:07:05;;;;;;;11.90;2.40;;;;;;;4.20;68.52;101183.91;4952053;28;20112;-59
2022/01/08 05:09:30;;;;;;;9.88;2.20;;;;;;;4.20;68.35;101177.84;4954102;28;20557;-59
2022/01/08 05:11:55;;;;;;;8.13;2.00;;;;;;;4.18;68.66;101177.78;4955840;28;20175;-59
2022/01/08 05:14:22;;;;;;;6.20;2.00;;;;;;;4.15;67.93;101182.78;4958744;28;20251;-60
2022/01/08 05:16:49;;;;;;;8.95;2.20;;;;;;;4.14;68.23;101170.72;4960437;28;20038;-60
2022/01/08 05:19:22;;;;;;;7.55;2.33;;;;;;;4.15;68.25;101167.31;4953286;28;21301;-57
2022/01/08 05:21:54;;;;;;;8.60;2.22;;;;;;;4.12;68.58;101174.94;4958724;28;20039;-60
2022/01/08 05:24:20;;;;;;;6.53;2.15;;;;;;;4.18;69.08;101179.47;4955604;28;20288;-59
2022/01/08 05:26:45;;;;;;;6.15;2.20;;;;;;;4.27;69.20;101191.06;4953950;28;20628;-59
2022/01/08 05:29:10;;;;;;;7.15;2.20;;;;;;;4.30;69.25;101195.50;4955208;28;20406;-58
2022/01/08 05:31:36;;;;;;;11.32;2.55;;;;;;;4.31;69.11;101190.41;4951391;28;20442;-60
2022/01/08 05:34:01;;;;;;;7.90;2.35;;;;;;;4.41;69.11;101196.84;4952875;28;20558;-58
2022/01/08 05:36:26;;;;;;;6.22;1.73;;;;;;;4.46;69.31;101195.31;4957186;28;20571;-59
2022/01/08 05:38:51;;;;;;;7.63;2.33;;;;;;;4.55;68.75;101203.47;4952883;28;20045;-58
2022/01/08 05:41:17;;;;;;;10.02;2.75;;;;;;;4.57;68.80;101200.97;4955072;28;20948;-57
2022/01/08 05:43:42;;;;;;;8.40;2.35;;;;;;;4.61;68.47;101205.44;4956328;28;20041;-60
2022/01/08 05:46:08;;;;;;;6.45;2.08;;;;;;;4.65;68.17;101205.63;4957747;28;20042;-60
2022/01/08 05:48:33;;;;;;;9.90;2.22;;;;;;;4.70;68.33;101196.38;4954127;28;20058;-58
2022/01/08 05:50:58;;;;;;;6.10;1.90;;;;;;;4.71;68.38;101197.25;4956610;28;20046;-59
2022/01/08 05:53:24;;;;;;;5.97;2.05;;;;;;;4.73;68.33;101193.03;4950210;28;20041;-60
2022/01/08 05:55:49;;;;;;;7.95;2.10;;;;;;;4.74;67.79;101194.81;4961263;28;20046;-59
2022/01/08 05:58:15;;;;;;;8.43;2.20;;;;;;;4.75;67.89;101187.13;4956653;28;20042;-60
2022/01/08 06:00:40;;;;;;;7.38;2.15;;;;;;;4.73;68.08;101183.59;4957589;28;20568;-59
2022/01/08 06:03:05;;;;;;;10.55;2.78;;;;;;;4.74;68.04;101187.06;4962916;28;20471;-59
2022/01/08 06:05:31;;;;;;;7.50;2.20;;;;;;;4.75;68.13;101178.50;4942721;28;20042;-59
2022/01/08 06:07:56;;;;;;;7.38;2.10;;;;;;;4.73;67.84;101177.53;4953900;28;20054;-58
2022/01/08 06:10:21;;;;;;;8.50;2.30;;;;;;;4.74;67.91;101172.44;4954480;28;20050;-59
2022/01/08 06:12:47;;;;;;;7.82;2.60;;;;;;;4.70;68.32;101174.81;4961147;28;20059;-59
2022/01/08 06:15:13;;;;;;;9.35;2.50;;;;;;;4.65;67.48;101168.59;4957603;28;20412;-58
2022/01/08 06:17:38;;;;;;;6.78;2.42;;;;;;;4.60;67.66;101170.09;4948478;28;20042;-58
2022/01/08 06:20:05;;;;;;;8.55;2.63;;;;;;;4.54;68.08;101175.00;4961145;28;20050;-58
2022/01/08 06:22:30;;;;;;;8.02;2.70;;;;;;;4.52;68.19;101171.47;4955623;28;20237;-59
2022/01/08 06:24:55;;;;;;;10.00;3.00;;;;;;;4.49;67.52;101165.38;4956015;28;20432;-58
2022/01/08 06:27:21;;;;;;;8.25;3.30;;;;;;;4.39;68.38;101168.38;4955042;28;20045;-61
2022/01/08 06:29:46;;;;;;;10.38;3.55;;;;;;;4.40;68.01;101161.50;4963000;28;20251;-59
2022/01/08 06:32:12;;;;;;;9.38;3.30;;;;;;;4.33;68.02;101165.53;4955503;28;20046;-59
2022/01/08 06:34:37;;;;;;;7.90;3.20;;;;;;;4.26;68.39;101160.94;4959217;28;20551;-58
2022/01/08 06:37:03;;;;;;;8.65;2.92;;;;;;;4.25;67.93;101164.34;4958479;28;20540;-60
2022/01/08 06:39:28;;;;;;;8.93;3.08;;;;;;;4.16;68.90;101161.34;4953230;28;20042;-60
2022/01/08 06:41:53;;;;;;;9.77;3.15;;;;;;;4.14;68.82;101164.69;4959207;28;20537;-58
2022/01/08 06:44:19;;;;;;;11.02;3.50;;;;;;;4.15;68.52;101164.72;4957166;28;20557;-58
2022/01/08 06:46:44;;;;;;;12.60;3.50;;;;;;;4.08;68.58;101154.97;4958797;28;20428;-58
2022/01/08 06:49:09;;;;;;;11.63;3.47;;;;;;;4.05;68.80;101155.72;4958382;28;20050;-58
2022/01/08 06:51:35;;;;;;;9.75;3.80;;;;;;;4.08;69.13;101150.72;4953823;28;20524;-60
2022/01/08 06:54:00;;;;;;;12.45;3.80;;;;;;;4.14;69.06;101152.66;4960877;28;20043;-59
2022/01/08 06:56:25;;;;;;;11.43;4.32;;;;;;;4.15;69.76;101148.41;4962414;28;20381;-58
2022/01/08 06:58:51;;;;;;;11.15;4.13;;;;;;;4.20;69.37;101147.78;4958932;28;20053;-59
2022/01/08 07:01:16;;;;;;;13.20;4.53;;;;;;;4.25;70.24;101153.13;4951450;28;20077;-59
2022/01/08 07:03:41;;;;;;;10.98;3.72;;;;;;;4.36;69.96;101144.13;4958031;28;20057;-59
2022/01/08 07:06:07;;;;;;;11.38;4.10;;;;;;;4.47;70.39;101145.47;4956399;28;20027;-59
2022/01/08 07:08:32;;;;;;;11.23;3.90;;;;;;;4.49;70.42;101143.84;4958664;28;20522;-59
2022/01/08 07:10:58;;;;;;;12.00;4.13;;;;;;;4.54;69.85;101144.03;4964165;28;20046;-59
2022/01/08 07:13:23;;;;;;;8.23;3.50;;;;;;;4.59;69.79;101140.81;4950455;28;20046;-59
2022/01/08 07:15:48;;;;;;;12.63;3.50;;;;;;;4.66;69.86;101144.53;4958271;28;20053;-59
2022/01/08 07:18:13;;;;;;;13.05;2.90;;;;;;;4.79;69.73;101129.59;4960838;28;20054;-59
2022/01/08 07:20:39;;;;;;;13.85;3.20;;;;;;;4.83;69.68;101130.59;4957981;28;20046;-59
2022/01/08 07:23:05;;;;;;;6.70;2.65;;;;;;;4.88;69.43;101129.06;4967858;28;20038;-59
2022/01/08 07:25:30;;;;;;;7.93;3.00;;;;;;;4.91;69.11;101126.63;4951058;28;20433;-58
2022/01/08 07:27:55;;;;;;;10.38;2.80;;;;;;;4.98;68.84;101126.06;4958572;28;20133;-59
2022/01/08 07:30:21;;;;;;;9.02;2.67;;;;;;;5.06;68.98;101129.81;4950955;28;20078;-59
2022/01/08 07:32:48;;;;;;;8.57;2.90;;;;;;;5.12;69.01;101131.78;4947267;28;20054;-59
2022/01/08 07:35:16;;;;;;;13.00;2.90;;;;;;;5.12;68.94;101126.63;4958856;28;20038;-59
2022/01/08 07:37:43;;;;;;;12.52;3.25;;;;;;;5.11;68.64;101120.56;4964795;28;20027;-58
2022/01/08 07:40:09;;;;;;;8.70;2.80;;;;;;;5.12;69.03;101121.44;4960823;28;20372;-59
2022/01/08 07:42:35;;;;;;;9.77;2.90;;;;;;;5.20;68.44;101113.16;4963822;28;20211;-61
2022/01/08 07:45:00;;;;;;;8.43;3.22;;;;;;;5.21;68.61;101114.91;4956919;28;20038;-59
2022/01/08 07:47:25;;;;;;;10.27;3.22;;;;;;;5.23;68.78;101118.44;4947178;28;20127;-59
2022/01/08 07:49:51;;;;;;;10.35;3.22;;;;;;;5.22;68.83;101114.09;4956736;28;20134;-59
2022/01/08 07:52:16;;;;;;;12.60;3.58;;;;;;;5.22;68.69;101116.69;4959100;28;20046;-59
2022/01/08 07:54:42;;;;;;;9.68;3.10;;;;;;;5.28;68.58;101113.44;4958609;28;20131;-59
2022/01/08 07:57:07;;;;;;;10.57;3.22;;;;;;;5.31;68.75;101111.84;4962652;28;20050;-59
2022/01/08 07:59:33;;;;;;;10.35;3.08;;;;;;;5.35;68.77;101104.22;4949985;28;20310;-60
2022/01/08 08:01:58;;;;;;;12.35;3.25;;;;;;;5.33;68.61;101096.41;4961753;28;20626;-59
2022/01/08 08:04:23;;;;;;;11.23;3.72;;;;;;;5.32;69.08;101099.81;4957849;28;20050;-59
2022/01/08 08:06:49;;;;;;;12.13;3.50;;;;;;;5.33;69.03;101099.00;4958009;28;20042;-60
2022/01/08 08:09:16;;;;;;;11.13;3.63;;;;;;;5.32;69.03;101094.63;4958216;28;20050;-59
2022/01/08 08:11:42;;;;;;;11.18;3.85;;;;;;;5.32;69.13;101090.34;4955740;28;20053;-59
2022/01/08 08:14:07;;;;;;;14.30;3.70;;;;;;;5.32;69.31;101084.28;4951113;28;20522;-59
2022/01/08 08:16:33;;;;;;;10.38;3.80;;;;;;;5.41;69.32;101088.94;4953744;28;20454;-59
2022/01/08 08:18:58;;;;;;;18.00;3.90;;;;;;;5.44;69.31;101081.28;4961124;28;20548;-58
2022/01/08 08:21:23;;;;;;;12.60;3.80;;;;;;;5.45;69.22;101072.72;4957589;28;20082;-59
2022/01/08 08:23:49;;;;;;;13.07;3.33;;;;;;;5.48;69.48;101080.59;4954095;28;20093;-59
2022/01/08 08:26:14;;;;;;;7.20;2.90;;;;;;;5.48;69.60;101076.31;4960438;28;20436;-59
2022/01/08 08:28:39;;;;;;;14.65;3.38;;;;;;;5.54;69.26;101078.25;4955534;28;20126;-60
2022/01/08 08:31:05;;;;;;;8.13;3.00;;;;;;;5.63;68.89;101071.69;4949415;28;20050;-60
2022/01/08 08:33:30;;;;;;;12.02;3.30;;;;;;;5.58;69.31;101070.63;4953150;28;20271;-60
2022/01/08 08:35:55;;;;;;;13.90;3.15;;;;;;;5.63;69.54;101063.03;4960757;28;20046;-60
2022/01/08 08:38:21;;;;;;;9.23;3.20;;;;;;;5.68;69.16;101051.16;4956038;28;20051;-58
2022/01/08 08:40:46;;;;;;;16.90;3.65;;;;;;;5.69;69.42;101056.38;4957650;28;20046;-60
2022/01/08 08:43:12;;;;;;;11.75;3.47;;;;;;;5.71;69.72;101046.97;4956288;28;20678;-59
2022/01/08 08:45:39;;;;;;;8.82;3.40;;;;;;;5.73;69.69;101047.03;4948876;28;20256;-59
2022/01/08 08:48:05;;;;;;;12.95;3.85;;;;;;;5.69;69.74;101048.63;4951519;28;20224;-59
2022/01/08 08:50:30;;;;;;;14.02;4.55;;;;;;;5.76;69.53;101047.13;4952345;28;20377;-59
2022/01/08 08:52:55;;;;;;;17.05;6.47;;;;;;;5.79;69.33;101039.50;4958827;28;20539;-59
2022/01/08 08:55:21;;;;;;;19.75;8.50;;;;;;;5.81;69.49;101042.13;4953491;28;20077;-59
2022/01/08 08:57:46;;;;;;;19.23;8.35;;;;;;;5.84;69.53;101047.41;4948945;28;20501;-58
2022/01/08 09:00:12;;;;;;;14.23;6.38;;;;;;;5.79;70.25;101049.84;4959844;28;20042;-59
2022/01/08 09:02:38;;;;;;;17.40;6.38;;;;;;;5.83;69.92;101032.72;4958409;28;20038;-59
2022/01/08 09:05:04;;;;;;;19.77;7.15;;;;;;;5.83;70.13;101036.19;4954438;28;20619;-60
2022/01/08 09:07:30;;;;;;;14.80;7.07;;;;;;;5.87;70.05;101019.97;4947684;28;20054;-60
2022/01/08 09:09:55;;;;;;;18.55;7.70;;;;;;;5.80;70.36;101014.47;4953111;28;20077;-59
2022/01/08 09:12:20;;;;;;;16.65;7.93;;;;;;;5.86;70.49;101001.75;4952721;28;20043;-59
2022/01/08 09:14:46;;;;;;;18.00;7.32;;;;;;;5.86;70.65;101007.81;4957985;28;20088;-60
2022/01/08 09:17:12;;;;;;;17.25;7.55;;;;;;;5.86;70.75;101002.63;4956615;28;20052;-60
2022/01/08 09:19:37;;;;;;;14.18;7.78;;;;;;;5.90;70.55;100990.75;4946797;28;21015;-59
2022/01/08 09:22:04;;;;;;;13.55;7.63;;;;;;;6.02;70.26;100989.44;4956909;28;20050;-58
2022/01/08 09:24:30;;;;;;;19.60;8.90;;;;;;;6.07;70.32;100992.19;4959535;28;20042;-60
2022/01/08 09:26:55;;;;;;;17.17;8.60;;;;;;;6.13;69.78;100978.56;4957802;28;20046;-59
2022/01/08 09:29:21;;;;;;;20.98;9.75;;;;;;;6.09;69.94;100975.88;4953247;28;20049;-59
2022/01/08 09:31:46;;;;;;;20.77;10.23;;;;;;;6.11;69.83;100968.13;4954049;28;20036;-60
2022/01/08 09:34:12;;;;;;;23.48;10.80;;;;;;;6.10;69.95;100967.25;4957178;28;20520;-60
2022/01/08 09:36:38;;;;;;;26.48;11.65;;;;;;;6.17;69.76;100962.28;4954326;28;20149;-59
2022/01/08 09:39:05;;;;;;;23.17;11.70;;;;;;;6.17;70.18;100960.56;4952861;28;20050;-59
2022/01/08 09:41:30;;;;;;;20.63;11.32;;;;;;;6.20;69.65;100960.69;4953662;28;20145;-60
2022/01/08 09:43:56;;;;;;;21.75;11.32;;;;;;;6.28;69.54;100948.84;4951980;28;20042;-60
2022/01/08 09:46:21;;;;;;;19.85;10.95;;;;;;;6.33;69.56;100941.25;4958485;28;20153;-59
2022/01/08 09:48:48;;;;;;;22.42;12.40;;;;;;;6.32;69.31;100948.13;4951104;28;20043;-59
2022/01/08 09:51:13;;;;;;;22.13;12.55;;;;;;;6.31;69.60;100945.50;4958066;28;20108;-59
2022/01/08 09:53:39;;;;;;;22.10;12.60;;;;;;;6.11;70.27;100934.50;4945267;28;20042;-60
2022/01/08 09:56:05;;;;;;;24.55;12.77;;;;;;;6.29;69.59;100921.25;4956469;28;20462;-59
2022/01/08 09:58:30;;;;;;;25.67;12.57;;;;;;;6.27;69.77;100931.59;4954121;28;20502;-60
2022/01/08 10:00:56;;;;;;;21.67;12.25;;;;;;;6.30;69.62;100917.84;4956756;28;20055;-60
2022/01/08 10:03:23;;;;;;;24.67;12.18;;;;;;;6.32;69.22;100906.72;4951360;28;20310;-59
2022/01/08 10:05:51;;;;;;;27.00;12.55;;;;;;;6.38;68.84;100906.00;4956704;28;20039;-60
2022/01/08 10:08:22;;;;;;;23.88;11.75;;;;;;;6.30;69.86;100903.19;4955974;28;20053;-60
2022/01/08 10:11:01;;;;;;;23.17;11.82;;;;;;;6.48;68.78;100898.56;4953213;28;20050;-59
2022/01/08 10:13:31;;;;;;;20.50;11.30;;;;;;;6.42;69.04;100889.72;4949561;28;20077;-59
2022/01/08 10:18:42;;;;;;;21.55;10.85;;;;;;;6.68;68.12;100868.06;4955643;28;20579;-60
2022/01/08 10:21:22;;;;;;;20.40;10.48;;;;;;;6.70;68.06;100850.88;4956091;28;20061;-59
2022/01/08 10:23:52;;;;;;;19.60;10.93;;;;;;;6.78;67.73;100843.28;4959350;28;20050;-60
2022/01/08 10:26:20;;;;;;;19.17;10.10;;;;;;;6.85;67.52;100840.03;4952520;28;20425;-60
2022/01/08 10:28:53;;;;;;;22.27;9.40;;;;;;;6.86;67.53;100828.84;4970624;28;20453;-60
2022/01/08 10:31:21;;;;;;;17.25;9.57;;;;;;;7.02;66.53;100823.22;4953086;28;20058;-59
2022/01/08 10:33:49;;;;;;;20.08;9.45;;;;;;;7.03;66.64;100826.69;4956715;28;20074;-60
2022/01/08 10:36:21;;;;;;;18.83;9.10;;;;;;;7.10;66.42;100821.72;4954316;28;20053;-59
2022/01/08 10:38:50;;;;;;;17.23;8.80;;;;;;;7.03;66.46;100814.63;4956551;28;20403;-59
2022/01/08 10:41:16;;;;;;;18.00;9.25;;;;;;;7.05;66.75;100802.59;4953386;28;20505;-59
2022/01/08 10:43:42;;;;;;;17.50;8.05;;;;;;;6.97;66.41;100792.84;4950253;28;20050;-60
2022/01/08 10:46:10;;;;;;;15.98;7.60;;;;;;;6.99;66.23;100781.69;4951056;28;20046;-59
2022/01/08 10:48:35;;;;;;;15.52;7.63;;;;;;;7.16;65.69;100770.03;4953568;28;20050;-60
2022/01/08 10:51:09;;;;;;;15.23;6.63;;;;;;;7.39;64.43;100768.00;4955970;28;20054;-60
2022/01/08 10:53:52;;;;;;;12.82;6.72;;;;;;;7.49;63.84;100758.75;4949008;28;20042;-59
2022/01/08 10:56:25;;;;;;;12.90;5.53;;;;;;;7.23;63.55;100746.03;4956191;28;20050;-59
2022/01/08 10:58:53;;;;;;;12.45;5.60;;;;;;;7.38;63.73;100735.13;4945010;28;20073;-59
2022/01/08 11:01:37;;;;;;;10.90;5.00;;;;;;;7.35;63.55;100727.28;4953959;28;20048;-59
2022/01/08 11:04:02;;;;;;;10.43;4.90;;;;;;;7.35;63.26;100724.69;4948971;28;20046;-59
2022/01/08 11:06:28;;;;;;;9.23;5.00;;;;;;;7.61;63.56;100708.03;4957957;28;20393;-59
2022/01/08 11:09:00;;;;;;;12.38;5.05;;;;;;;7.74;62.04;100702.25;4949531;28;20444;-60
2022/01/08 11:11:29;;;;;;;13.40;4.70;;;;;;;7.79;61.98;100699.78;4952117;28;20569;-60
2022/01/08 11:14:04;;;;;;;11.02;4.50;;;;;;;7.84;61.78;100689.47;4959545;28;20543;-60
2022/01/08 11:16:30;;;;;;;;;;;;;;;7.79;62.58;100679.00;4962926;28;20034;-60
2022/01/08 11:18:55;;;;;;;10.73;4.00;;;;;;;7.74;62.55;100676.28;4951351;28;19933;-60
2022/01/08 11:21:21;;;;;;;9.93;3.47;;;;;;;7.86;61.74;100667.94;4955286;28;20065;-60
2022/01/08 11:23:47;;;;;;;14.20;3.60;;;;;;;7.73;62.20;100661.59;4959297;28;20816;-59
2022/01/08 11:26:12;;;;;;;6.68;3.50;;;;;;;7.61;62.49;100660.44;4956941;28;20545;-59
2022/01/08 11:28:40;;;;;;;10.50;3.30;;;;;;;7.83;62.39;100657.47;4952026;28;20525;-59
2022/01/08 11:31:08;;;;;;;12.65;3.50;;;;;;;7.73;62.02;100652.94;4955255;28;20490;-59
2022/01/08 11:33:36;;;;;;;10.90;3.42;;;;;;;7.86;62.18;100639.38;4954321;28;20130;-59
2022/01/08 11:36:02;;;;;;;9.10;3.80;;;;;;;7.86;62.19;100629.00;4966141;28;20050;-59
2022/01/08 11:38:28;;;;;;;6.57;3.47;;;;;;;7.86;62.87;100625.53;4955994;28;20050;-58
2022/01/08 11:40:56;;;;;;;12.20;3.83;;;;;;;7.87;62.99;100622.09;4959829;28;20038;-60
2022/01/08 11:43:24;;;;;;;12.73;3.92;;;;;;;7.53;63.78;100611.00;4953380;28;20047;-60
2022/01/08 11:46:01;;;;;;;12.00;4.50;;;;;;;7.45;64.53;100591.78;4959358;28;20026;-60
2022/01/08 11:48:34;;;;;;;8.48;3.72;;;;;;;7.55;64.93;100585.97;4958849;28;20031;-59